createdAt,value
2018-08-17T00:01:18.783Z,66.90
2018-08-17T00:03:46.127Z,67.10
2018-08-17T00:06:13.434Z,67.50
2018-08-17T00:08:40.737Z,68.20
2018-08-17T00:11:08.083Z,68.60
2018-08-17T00:13:35.462Z,68.60
2018-08-17T00:16:02.767Z,68.20
2018-08-17T00:18:30.131Z,68.10
2018-08-17T00:20:57.484Z,68.40
2018-08-17T00:23:24.785Z,68.60
2018-08-17T00:25:52.088Z,68.20
2018-08-17T00:28:19.420Z,68.40
2018-08-17T00:30:46.713Z,68.00
2018-08-17T00:33:14.026Z,68.50
2018-08-17T00:35:41.334Z,68.00
2018-08-17T00:38:09.323Z,68.70
2018-08-17T00:40:36.645Z,68.70
2018-08-17T00:43:03.992Z,68.80
2018-08-17T00:45:31.378Z,69.30
2018-08-17T00:47:58.743Z,68.70
2018-08-17T00:50:26.018Z,68.30
2018-08-17T00:52:53.360Z,68.60
2018-08-17T00:55:20.685Z,68.40
2018-08-17T00:57:47.977Z,68.50
2018-08-17T01:00:15.316Z,69.10
2018-08-17T01:02:42.651Z,69.30
2018-08-17T01:05:10.012Z,69.20
2018-08-17T01:07:37.387Z,69.50
2018-08-17T01:10:04.736Z,69.50
2018-08-17T01:12:32.055Z,69.70
2018-08-17T01:14:59.355Z,69.50
2018-08-17T01:17:26.664Z,69.70
2018-08-17T01:19:53.953Z,69.50
2018-08-17T01:22:21.259Z,69.00
2018-08-17T01:24:48.572Z,69.40
2018-08-17T01:27:15.916Z,69.50
2018-08-17T01:29:43.370Z,69.20
2018-08-17T01:32:10.681Z,69.00
2018-08-17T01:34:37.980Z,69.00
2018-08-17T01:37:05.300Z,69.30
2018-08-17T01:39:32.652Z,70.00
2018-08-17T01:42:00.033Z,70.30
2018-08-17T01:44:27.347Z,69.70
2018-08-17T01:46:54.656Z,70.00
2018-08-17T01:49:21.972Z,69.70
2018-08-17T01:51:49.280Z,70.20
2018-08-17T01:54:16.615Z,70.20
2018-08-17T01:56:43.949Z,69.90
2018-08-17T01:59:11.251Z,69.40
2018-08-17T02:01:38.565Z,69.70
2018-08-17T02:04:05.901Z,70.10
2018-08-17T02:06:33.203Z,70.40
2018-08-17T02:09:00.536Z,69.90
2018-08-17T02:11:27.852Z,69.70
2018-08-17T02:13:55.180Z,69.90
2018-08-17T02:16:22.518Z,70.20
2018-08-17T02:18:49.814Z,71.00
2018-08-17T02:21:17.164Z,69.80
2018-08-17T02:23:44.487Z,69.70
2018-08-17T02:26:11.831Z,70.30
2018-08-17T02:28:39.180Z,70.40
2018-08-17T02:31:06.539Z,70.60
2018-08-17T02:33:33.881Z,70.50
2018-08-17T02:36:01.607Z,71.20
2018-08-17T02:38:28.916Z,70.80
2018-08-17T02:40:56.218Z,70.80
2018-08-17T02:43:23.541Z,71.40
2018-08-17T02:45:50.892Z,71.70
2018-08-17T02:48:18.217Z,71.80
2018-08-17T02:50:45.512Z,71.80
2018-08-17T02:53:12.827Z,71.30
2018-08-17T02:55:40.179Z,71.30
2018-08-17T02:58:07.472Z,70.80
2018-08-17T03:00:34.787Z,71.00
2018-08-17T03:03:02.117Z,71.30
2018-08-17T03:05:29.441Z,71.60
2018-08-17T03:07:56.732Z,72.00
2018-08-17T03:10:24.079Z,73.20
2018-08-17T03:12:51.396Z,72.10
2018-08-17T03:15:18.729Z,72.60
2018-08-17T03:17:46.046Z,72.60
2018-08-17T03:20:13.378Z,73.10
2018-08-17T03:22:40.670Z,72.90
2018-08-17T03:25:07.996Z,73.00
2018-08-17T03:27:35.327Z,73.20
2018-08-17T03:30:02.653Z,73.30
2018-08-17T03:32:29.986Z,73.70
2018-08-17T03:34:57.305Z,74.00
2018-08-17T03:37:24.644Z,74.30
2018-08-17T03:39:51.995Z,74.10
2018-08-17T03:42:19.339Z,74.80
2018-08-17T03:44:46.798Z,75.60
2018-08-17T03:47:14.089Z,75.00
2018-08-17T03:49:41.387Z,74.60
2018-08-17T03:52:08.682Z,74.00
2018-08-17T03:54:36.008Z,73.90
2018-08-17T03:57:03.313Z,73.70
2018-08-17T03:59:30.619Z,73.50
2018-08-17T04:01:57.946Z,73.60
2018-08-17T04:04:25.288Z,74.30
2018-08-17T04:06:52.679Z,74.80
2018-08-17T04:09:19.987Z,74.50
2018-08-17T04:11:47.303Z,74.50
2018-08-17T04:14:14.596Z,74.40
2018-08-17T04:16:41.935Z,74.70
2018-08-17T04:19:09.234Z,74.60
2018-08-17T04:21:36.559Z,74.60
2018-08-17T04:24:03.875Z,74.90
2018-08-17T04:26:31.213Z,75.80
2018-08-17T04:28:58.522Z,75.50
2018-08-17T04:31:25.845Z,75.60
2018-08-17T04:33:53.345Z,76.10
2018-08-17T04:36:20.678Z,76.10
2018-08-17T04:38:47.987Z,76.20
2018-08-17T04:41:15.295Z,76.90
2018-08-17T04:43:42.608Z,76.80
2018-08-17T04:46:09.890Z,76.50
2018-08-17T04:48:37.223Z,76.60
2018-08-17T04:51:04.578Z,76.70
2018-08-17T04:53:31.953Z,76.50
2018-08-17T04:55:59.328Z,76.80
2018-08-17T04:58:26.611Z,77.10
2018-08-17T05:00:53.939Z,77.30
2018-08-17T05:03:21.271Z,77.20
2018-08-17T05:05:48.549Z,77.10
2018-08-17T05:08:15.839Z,77.20
2018-08-17T05:10:43.199Z,77.10
2018-08-17T05:13:10.483Z,77.00
2018-08-17T05:15:37.819Z,77.00
2018-08-17T05:18:05.157Z,76.50
2018-08-17T05:20:32.561Z,76.30
2018-08-17T05:22:59.858Z,76.30
2018-08-17T05:25:27.165Z,75.90
2018-08-17T05:27:54.470Z,75.20
2018-08-17T05:30:21.790Z,74.70
2018-08-17T05:32:49.114Z,74.30
2018-08-17T05:35:16.426Z,73.60
2018-08-17T05:37:43.729Z,73.10
2018-08-17T05:40:11.027Z,73.20
2018-08-17T05:42:38.338Z,73.00
2018-08-17T05:45:06.162Z,72.60
2018-08-17T05:47:33.456Z,72.10
2018-08-17T05:50:00.765Z,72.20
2018-08-17T05:52:28.158Z,72.00
2018-08-17T05:54:55.467Z,71.90
2018-08-17T05:57:22.780Z,71.60
2018-08-17T05:59:50.192Z,71.50
2018-08-17T06:02:17.574Z,71.50
2018-08-17T06:04:44.936Z,71.30
2018-08-17T06:07:12.223Z,71.40
2018-08-17T06:09:39.544Z,70.90
2018-08-17T06:12:06.952Z,70.60
2018-08-17T06:14:34.277Z,70.30
2018-08-17T06:17:01.699Z,70.40
2018-08-17T06:19:29.007Z,70.30
2018-08-17T06:21:56.315Z,70.50
2018-08-17T06:24:23.639Z,69.70
2018-08-17T06:26:50.906Z,69.20
2018-08-17T06:29:18.231Z,69.60
2018-08-17T06:31:45.606Z,68.90
2018-08-17T06:34:12.846Z,69.00
2018-08-17T06:36:40.151Z,68.80
2018-08-17T06:39:08.055Z,69.00
2018-08-17T06:41:35.345Z,68.80
2018-08-17T06:44:02.943Z,68.90
2018-08-17T06:46:30.274Z,68.50
2018-08-17T06:48:57.614Z,68.70
2018-08-17T06:51:24.918Z,69.20
2018-08-17T06:53:52.209Z,69.40
2018-08-17T06:56:19.542Z,69.70
2018-08-17T06:58:46.835Z,69.80
2018-08-17T07:01:14.145Z,69.70
2018-08-17T07:03:41.458Z,69.50
2018-08-17T07:06:08.810Z,69.50
2018-08-17T07:08:36.208Z,69.70
2018-08-17T07:11:03.509Z,69.40
2018-08-17T07:13:30.857Z,69.00
2018-08-17T07:15:58.220Z,68.80
2018-08-17T07:18:25.549Z,68.90
2018-08-17T07:20:52.895Z,69.00
2018-08-17T07:23:20.261Z,68.90
2018-08-17T07:25:47.579Z,69.20
2018-08-17T07:28:14.989Z,69.90
2018-08-17T07:30:42.279Z,70.50
2018-08-17T07:33:09.626Z,70.70
2018-08-17T07:35:36.944Z,71.20
2018-08-17T07:38:04.286Z,71.80
2018-08-17T07:40:31.661Z,71.80
2018-08-17T07:42:59.131Z,72.10
2018-08-17T07:45:26.432Z,71.70
2018-08-17T07:47:53.849Z,71.80
2018-08-17T07:50:21.149Z,71.80
2018-08-17T07:52:48.591Z,72.00
2018-08-17T07:55:15.950Z,71.80
2018-08-17T07:57:43.303Z,71.80
2018-08-17T08:00:10.983Z,71.30
2018-08-17T08:02:38.394Z,71.50
2018-08-17T08:05:06.721Z,71.20
2018-08-17T08:07:34.135Z,71.10
2018-08-17T08:10:01.533Z,70.70
2018-08-17T08:12:28.773Z,70.50
2018-08-17T08:14:56.094Z,70.20
2018-08-17T08:17:23.417Z,69.90
2018-08-17T08:20:02.111Z,69.90
2018-08-17T08:22:29.439Z,70.60
2018-08-17T08:24:56.748Z,70.10
2018-08-17T08:27:24.063Z,70.30
2018-08-17T08:29:51.391Z,69.80
2018-08-17T08:32:18.813Z,70.00
2018-08-17T08:34:46.081Z,69.30
2018-08-17T08:37:13.382Z,69.20
2018-08-17T08:39:40.711Z,68.80
2018-08-17T08:42:08.015Z,68.80
2018-08-17T08:44:35.318Z,69.10
2018-08-17T08:47:02.802Z,69.00
2018-08-17T08:49:30.114Z,69.50
2018-08-17T08:51:57.407Z,69.90
2018-08-17T08:54:24.825Z,69.50
2018-08-17T08:56:52.138Z,69.50
2018-08-17T08:59:19.450Z,69.40
2018-08-17T09:01:46.763Z,70.00
2018-08-17T09:04:14.044Z,70.80
2018-08-17T09:06:41.461Z,70.90
2018-08-17T09:09:08.748Z,70.60
2018-08-17T09:11:36.081Z,70.00
2018-08-17T09:14:03.401Z,69.40
2018-08-17T09:16:30.717Z,69.20
2018-08-17T09:18:58.021Z,68.10
2018-08-17T09:21:25.364Z,67.80
2018-08-17T09:23:52.706Z,68.00
2018-08-17T09:26:20.036Z,67.20
2018-08-17T09:28:47.376Z,66.80
2018-08-17T09:31:14.679Z,66.80
2018-08-17T09:33:41.994Z,66.20
2018-08-17T09:36:09.407Z,66.40
2018-08-17T09:38:36.660Z,66.00
2018-08-17T09:41:03.977Z,66.00
2018-08-17T09:43:31.332Z,65.30
2018-08-17T09:45:58.622Z,65.40
2018-08-17T09:48:26.180Z,66.00
2018-08-17T09:50:53.477Z,65.80
2018-08-17T09:53:20.810Z,66.00
2018-08-17T09:55:48.136Z,65.00
2018-08-17T09:58:15.449Z,65.40
2018-08-17T10:00:42.761Z,65.90
2018-08-17T10:03:10.181Z,65.30
2018-08-17T10:05:37.482Z,64.50
2018-08-17T10:08:04.863Z,64.00
2018-08-17T10:10:32.249Z,64.70
2018-08-17T10:12:59.550Z,64.10
2018-08-17T10:15:26.931Z,63.60
2018-08-17T10:17:54.305Z,63.80
2018-08-17T10:20:21.607Z,63.20
2018-08-17T10:22:48.991Z,63.00
2018-08-17T10:25:16.361Z,62.70
2018-08-17T10:27:44.570Z,62.80
2018-08-17T10:30:11.847Z,62.90
2018-08-17T10:32:39.175Z,62.10
2018-08-17T10:35:06.482Z,62.40
2018-08-17T10:37:33.809Z,62.40
2018-08-17T10:40:01.148Z,62.50
2018-08-17T10:42:28.465Z,61.90
2018-08-17T10:44:55.742Z,61.40
2018-08-17T10:47:23.159Z,61.20
2018-08-17T10:49:50.478Z,61.00
2018-08-17T10:52:17.784Z,60.40
2018-08-17T10:54:45.187Z,59.90
2018-08-17T10:57:12.503Z,59.40
2018-08-17T10:59:39.879Z,59.20
2018-08-17T11:02:07.176Z,59.60
2018-08-17T11:04:34.538Z,59.10
2018-08-17T11:07:02.150Z,58.90
2018-08-17T11:09:29.548Z,59.30
2018-08-17T11:11:56.870Z,59.40
2018-08-17T11:14:24.186Z,59.30
2018-08-17T11:16:51.516Z,59.60
2018-08-17T11:19:18.815Z,59.10
2018-08-17T11:21:46.114Z,58.70
2018-08-17T11:24:13.410Z,58.60
2018-08-17T11:26:40.738Z,59.00
2018-08-17T11:29:08.022Z,58.70
2018-08-17T11:31:35.450Z,58.90
2018-08-17T11:34:02.816Z,57.60
2018-08-17T11:36:30.097Z,57.90
2018-08-17T11:38:57.407Z,57.40
2018-08-17T11:41:24.791Z,57.40
2018-08-17T11:43:55.846Z,57.10
2018-08-17T11:46:23.212Z,56.70
2018-08-17T11:48:50.527Z,56.40
2018-08-17T11:51:17.843Z,56.70
2018-08-17T11:53:45.935Z,57.50
2018-08-17T11:56:13.220Z,57.70
2018-08-17T11:58:40.667Z,57.20
2018-08-17T12:01:07.977Z,57.10
2018-08-17T12:03:35.297Z,56.60
2018-08-17T12:06:02.687Z,57.00
2018-08-17T12:08:29.977Z,56.90
2018-08-17T12:10:57.292Z,56.80
2018-08-17T12:13:25.128Z,57.40
2018-08-17T12:15:52.432Z,57.10
2018-08-17T12:18:19.734Z,57.10
2018-08-17T12:20:47.045Z,57.00
2018-08-17T12:23:14.360Z,57.00
2018-08-17T12:25:41.702Z,56.00
2018-08-17T12:28:09.001Z,56.10
2018-08-17T12:30:36.311Z,55.30
2018-08-17T12:33:03.846Z,55.30
2018-08-17T12:35:31.254Z,55.30
2018-08-17T12:37:58.647Z,55.60
2018-08-17T12:40:25.977Z,55.30
2018-08-17T12:42:53.312Z,55.10
2018-08-17T12:45:20.639Z,54.50
2018-08-17T12:47:48.046Z,54.60
2018-08-17T12:50:15.332Z,54.50
2018-08-17T12:52:42.763Z,54.20
2018-08-17T12:55:10.062Z,54.30
2018-08-17T12:57:37.380Z,54.40
2018-08-17T13:00:04.996Z,54.10
2018-08-17T13:02:32.381Z,53.70
2018-08-17T13:04:59.705Z,54.20
2018-08-17T13:07:27.030Z,54.40
2018-08-17T13:09:54.369Z,54.40
2018-08-17T13:12:21.702Z,54.00
2018-08-17T13:14:50.669Z,54.20
2018-08-17T13:17:18.063Z,54.40
2018-08-17T13:19:45.507Z,54.20
2018-08-17T13:22:12.875Z,54.30
2018-08-17T13:24:40.255Z,54.30
2018-08-17T13:27:07.597Z,54.50
2018-08-17T13:29:34.991Z,54.70
2018-08-17T13:32:02.364Z,54.50
2018-08-17T13:34:29.703Z,54.40
2018-08-17T13:36:57.050Z,54.40
2018-08-17T13:39:24.346Z,54.50
2018-08-17T13:41:51.795Z,54.00
2018-08-17T13:44:19.200Z,53.90
2018-08-17T13:46:46.564Z,53.80
2018-08-17T13:49:13.914Z,53.60
2018-08-17T13:51:41.374Z,54.20
2018-08-17T13:54:08.693Z,54.50
2018-08-17T13:56:36.062Z,54.70
2018-08-17T13:59:03.522Z,55.60
2018-08-17T14:01:30.877Z,55.60
2018-08-17T14:03:58.247Z,56.10
2018-08-17T14:06:25.690Z,56.20
2018-08-17T14:08:53.018Z,56.50
2018-08-17T14:11:20.311Z,57.30
2018-08-17T14:13:47.716Z,57.30
2018-08-17T14:16:14.998Z,57.60
2018-08-17T14:18:42.338Z,57.40
2018-08-17T14:21:09.629Z,57.50
2018-08-17T14:23:36.977Z,58.10
2018-08-17T14:26:04.310Z,57.60
2018-08-17T14:28:31.636Z,57.20
2018-08-17T14:30:58.948Z,57.00
2018-08-17T14:33:26.233Z,56.70
2018-08-17T14:35:53.657Z,56.80
2018-08-17T14:38:30.694Z,56.80
2018-08-17T14:40:58.084Z,56.70
2018-08-17T14:43:25.357Z,56.70
2018-08-17T14:45:52.724Z,56.40
2018-08-17T14:48:20.022Z,56.20
2018-08-17T14:50:48.413Z,55.60
2018-08-17T14:53:15.793Z,55.30
2018-08-17T14:55:43.110Z,55.30
2018-08-17T14:58:10.395Z,55.50
2018-08-17T15:00:37.755Z,56.40
2018-08-17T15:03:05.135Z,57.20
2018-08-17T15:05:32.581Z,57.70
2018-08-17T15:07:59.967Z,57.90
2018-08-17T15:10:27.343Z,59.10
2018-08-17T15:12:54.774Z,59.40
2018-08-17T15:15:22.102Z,59.50
2018-08-17T15:17:49.448Z,59.30
2018-08-17T15:20:16.757Z,59.80
2018-08-17T15:22:44.115Z,59.90
2018-08-17T15:25:11.450Z,60.40
2018-08-17T15:27:38.849Z,60.30
2018-08-17T15:30:07.762Z,60.30
2018-08-17T15:32:35.117Z,60.20
2018-08-17T15:35:02.681Z,60.50
2018-08-17T15:37:29.966Z,60.70
2018-08-17T15:39:57.318Z,60.80
2018-08-17T15:42:24.869Z,61.30
2018-08-17T15:44:52.258Z,61.70
2018-08-17T15:47:19.593Z,61.40
2018-08-17T15:50:19.291Z,61.00
2018-08-17T15:52:46.767Z,60.80
2018-08-17T15:55:14.087Z,61.10
2018-08-17T15:57:41.494Z,60.90
2018-08-17T16:00:11.808Z,61.00
2018-08-17T16:02:39.110Z,60.60
2018-08-17T16:05:06.543Z,61.10
2018-08-17T16:07:34.048Z,61.90
2018-08-17T16:10:01.368Z,60.90
2018-08-17T16:12:28.699Z,60.70
2018-08-17T16:14:56.040Z,60.20
2018-08-17T16:17:23.471Z,59.70
2018-08-17T16:19:52.026Z,60.00
2018-08-17T16:22:19.333Z,60.20
2018-08-17T16:24:46.694Z,59.90
2018-08-17T16:27:13.942Z,59.90
2018-08-17T16:29:41.249Z,59.50
2018-08-17T16:32:08.541Z,59.00
2018-08-17T16:34:35.907Z,58.60
2018-08-17T16:37:03.264Z,58.70
2018-08-17T16:39:31.846Z,58.70
2018-08-17T16:41:59.133Z,58.40
2018-08-17T16:44:26.413Z,57.50
2018-08-17T16:46:53.733Z,57.40
2018-08-17T16:49:21.029Z,57.10
2018-08-17T16:51:48.358Z,58.10
2018-08-17T16:54:15.662Z,58.20
2018-08-17T16:56:43.074Z,58.40
2018-08-17T16:59:10.414Z,58.30
2018-08-17T17:01:37.724Z,58.60
2018-08-17T17:04:05.221Z,59.20
2018-08-17T17:06:32.648Z,59.70
2018-08-17T17:09:01.301Z,59.50
2018-08-17T17:11:28.645Z,59.70
2018-08-17T17:13:55.964Z,60.30
2018-08-17T17:16:27.922Z,61.40
2018-08-17T17:18:55.254Z,61.80
2018-08-17T17:21:22.642Z,61.80
2018-08-17T17:23:49.938Z,62.10
2018-08-17T17:26:17.265Z,61.60
2018-08-17T17:28:44.608Z,62.20
2018-08-17T17:31:15.326Z,63.00
2018-08-17T17:33:42.688Z,62.90
2018-08-17T17:36:10.020Z,63.70
2018-08-17T17:38:37.371Z,63.50
2018-08-17T17:41:04.869Z,63.80
2018-08-17T17:43:32.562Z,63.90
2018-08-17T17:45:59.857Z,64.00
2018-08-17T17:48:27.222Z,64.00
2018-08-17T17:50:54.531Z,64.30
2018-08-17T17:53:21.845Z,64.60
2018-08-17T17:55:49.199Z,64.90
2018-08-17T17:58:18.199Z,64.80
2018-08-17T18:00:49.159Z,65.20
2018-08-17T18:03:16.522Z,65.40
2018-08-17T18:12:42.742Z,66.00
2018-08-17T18:15:10.069Z,67.80
2018-08-17T18:17:37.385Z,68.10
2018-08-17T18:20:04.757Z,68.40
2018-08-17T18:22:32.116Z,68.60
2018-08-17T18:24:59.450Z,68.80
2018-08-17T18:27:26.771Z,68.50
2018-08-17T18:29:54.139Z,69.00
2018-08-17T18:32:21.499Z,69.30
2018-08-17T18:34:48.934Z,69.20
2018-08-17T18:37:16.252Z,69.10
2018-08-17T18:39:43.573Z,69.00
2018-08-17T18:42:10.905Z,68.90
2018-08-17T18:44:38.333Z,68.90
2018-08-17T18:47:05.889Z,69.10
2018-08-17T18:49:33.209Z,69.40
2018-08-17T18:52:00.552Z,69.70
2018-08-17T18:54:27.914Z,69.90
2018-08-17T18:56:55.268Z,70.20
2018-08-17T18:59:22.575Z,70.40
2018-08-17T19:01:49.912Z,70.60
2018-08-17T19:04:17.246Z,70.50
2018-08-17T19:06:44.567Z,70.70
2018-08-17T19:09:11.879Z,71.00
2018-08-17T19:11:39.217Z,71.00
2018-08-17T19:14:06.624Z,71.00
2018-08-17T19:16:33.952Z,71.20
2018-08-17T19:19:01.362Z,71.50
2018-08-17T19:21:28.712Z,71.20
2018-08-17T19:23:56.026Z,71.10
2018-08-17T19:26:23.327Z,71.70
2018-08-17T19:28:51.307Z,71.60
2018-08-17T19:31:18.879Z,71.40
2018-08-17T19:33:46.214Z,71.50
2018-08-17T19:36:13.519Z,71.50
2018-08-17T19:38:40.844Z,72.40
2018-08-17T19:41:08.192Z,72.10
2018-08-17T19:43:35.552Z,72.40
2018-08-17T19:46:02.993Z,72.70
2018-08-17T19:48:30.279Z,73.10
2018-08-17T19:50:57.713Z,72.90
2018-08-17T19:53:25.015Z,72.80
2018-08-17T19:55:53.150Z,72.70
2018-08-17T19:58:20.550Z,73.10
2018-08-17T20:00:47.870Z,72.70
2018-08-17T20:03:18.053Z,72.40
2018-08-17T20:05:45.393Z,72.40
2018-08-17T20:08:12.758Z,72.20
2018-08-17T20:10:40.102Z,72.10
2018-08-17T20:13:13.165Z,71.80
2018-08-17T20:15:40.544Z,72.00
2018-08-17T20:18:16.985Z,71.90
2018-08-17T20:20:45.878Z,72.30
2018-08-17T20:23:15.055Z,72.30
2018-08-17T20:25:42.485Z,72.40
2018-08-17T20:28:09.896Z,72.00
2018-08-17T20:30:37.433Z,71.90
2018-08-17T20:33:09.750Z,71.90
2018-08-17T20:35:37.603Z,72.30
2018-08-17T20:38:05.048Z,71.80
2018-08-17T20:40:32.393Z,71.90
2018-08-17T20:43:00.451Z,71.40
2018-08-17T20:45:29.158Z,71.70
2018-08-17T20:47:59.203Z,71.90
2018-08-17T20:50:28.966Z,72.10
2018-08-17T20:52:56.644Z,71.90
2018-08-17T20:55:24.098Z,72.00
2018-08-17T20:57:51.563Z,72.00
2018-08-17T21:00:19.139Z,72.20
2018-08-17T21:02:48.633Z,71.80
2018-08-17T21:05:15.994Z,71.60
2018-08-17T21:07:54.174Z,71.60
2018-08-17T21:10:22.016Z,70.90
2018-08-17T21:12:49.394Z,70.90
2018-08-17T21:15:21.067Z,70.80
2018-08-17T21:17:48.385Z,70.30
2018-08-17T21:20:15.719Z,69.90
2018-08-17T21:22:43.236Z,70.20
2018-08-17T21:25:10.519Z,70.20
2018-08-17T21:27:38.054Z,69.70
2018-08-17T21:30:05.944Z,69.20
2018-08-17T21:32:33.298Z,69.10
2018-08-17T21:35:00.747Z,69.30
2018-08-17T21:37:28.304Z,68.90
2018-08-17T21:39:55.642Z,69.20
2018-08-17T21:42:22.952Z,69.00
2018-08-17T21:44:50.273Z,68.90
2018-08-17T21:47:17.589Z,69.50
2018-08-17T21:49:44.985Z,69.60
2018-08-17T21:52:12.314Z,69.90
2018-08-17T21:54:39.651Z,69.90
2018-08-17T21:57:06.956Z,69.80
2018-08-17T21:59:34.278Z,69.70
2018-08-17T22:02:01.804Z,69.50
2018-08-17T22:04:29.134Z,68.90
2018-08-17T22:06:57.047Z,69.20
2018-08-17T22:09:37.535Z,69.70
2018-08-17T22:12:05.335Z,69.50
2018-08-17T22:14:32.640Z,69.70
2018-08-17T22:17:00.090Z,70.00
2018-08-17T22:19:40.100Z,70.10
2018-08-17T22:22:08.506Z,70.40
2018-08-17T22:24:35.804Z,70.60
2018-08-17T22:27:03.112Z,70.80
2018-08-17T22:29:30.509Z,71.00
2018-08-17T22:31:57.729Z,71.10
2018-08-17T22:34:25.086Z,70.90
2018-08-17T22:36:52.677Z,71.00
2018-08-17T22:39:20.013Z,71.00
2018-08-17T22:41:47.417Z,70.80
2018-08-17T22:44:14.650Z,70.90
2018-08-17T22:46:41.956Z,70.90
2018-08-17T22:49:09.272Z,71.10
2018-08-17T22:51:36.599Z,71.30
2018-08-17T22:54:03.926Z,71.50
2018-08-17T22:56:31.249Z,71.70
2018-08-17T22:58:58.546Z,71.70
2018-08-17T23:01:25.855Z,71.20
2018-08-17T23:03:53.150Z,71.00
2018-08-17T23:06:20.762Z,71.20
2018-08-17T23:08:48.052Z,71.10
2018-08-17T23:11:26.878Z,71.10
2018-08-17T23:13:54.190Z,70.90
2018-08-17T23:16:21.531Z,71.00
2018-08-17T23:18:48.841Z,70.90
2018-08-17T23:21:16.229Z,70.80
2018-08-17T23:23:43.640Z,71.00
2018-08-17T23:26:10.943Z,71.10
2018-08-17T23:28:38.310Z,71.40
2018-08-17T23:31:05.661Z,71.60
2018-08-17T23:33:32.999Z,71.50
2018-08-17T23:36:00.302Z,72.10
2018-08-17T23:38:27.926Z,71.60
2018-08-17T23:40:55.309Z,71.80
2018-08-17T23:43:22.626Z,72.00
2018-08-17T23:45:49.945Z,71.90
2018-08-17T23:48:17.292Z,71.60
2018-08-17T23:50:44.639Z,71.50
2018-08-17T23:53:11.997Z,71.70
2018-08-17T23:55:39.388Z,72.00
2018-08-17T23:58:06.721Z,72.40
